createdAt,value
2022-12-23T00:01:46.405Z,133.20
2022-12-23T00:04:13.121Z,138.40
2022-12-23T00:06:39.845Z,146.68
2022-12-23T00:09:06.456Z,142.07
2022-12-23T00:11:33.081Z,127.50
2022-12-23T00:14:21.609Z,127.82
2022-12-23T00:16:50.756Z,125.40
2022-12-23T00:19:17.671Z,108.40
2022-12-23T00:21:44.316Z,115.22
2022-12-23T00:24:11.650Z,120.60
2022-12-23T00:26:38.818Z,98.38
2022-12-23T00:29:05.630Z,104.63
2022-12-23T00:31:32.363Z,105.10
2022-12-23T00:33:59.201Z,105.03
2022-12-23T00:36:30.153Z,102.95
2022-12-23T00:39:18.180Z,105.10
2022-12-23T00:42:03.856Z,115.40
2022-12-23T00:44:30.508Z,80.03
2022-12-23T00:46:57.289Z,117.38
2022-12-23T00:49:42.051Z,122.65
2022-12-23T00:52:15.552Z,121.82
2022-12-23T00:54:42.348Z,118.95
2022-12-23T00:57:09.107Z,105.53
2022-12-23T00:59:35.734Z,99.63
2022-12-23T01:02:21.030Z,99.95
2022-12-23T01:05:06.251Z,102.35
2022-12-23T01:07:32.851Z,104.80
2022-12-23T01:09:59.405Z,107.60
2022-12-23T01:12:26.009Z,92.85
2022-12-23T01:14:52.670Z,110.13
2022-12-23T01:17:19.414Z,110.53
2022-12-23T01:19:46.084Z,105.60
2022-12-23T01:22:12.707Z,112.78
2022-12-23T01:24:39.264Z,107.70
2022-12-23T01:27:05.838Z,102.13
2022-12-23T01:29:33.950Z,113.32
2022-12-23T01:32:00.617Z,115.50
2022-12-23T01:34:32.564Z,104.38
2022-12-23T01:37:02.908Z,118.18
2022-12-23T01:39:29.509Z,120.10
2022-12-23T01:42:14.739Z,116.18
2022-12-23T01:45:00.924Z,102.20
2022-12-23T01:47:49.551Z,111.10
2022-12-23T01:50:58.017Z,114.97
2022-12-23T01:53:29.930Z,115.75
2022-12-23T01:55:59.256Z,106.38
2022-12-23T01:58:25.806Z,103.75
2022-12-23T02:01:14.263Z,110.47
2022-12-23T02:03:44.344Z,106.93
2022-12-23T02:06:42.831Z,114.15
2022-12-23T02:09:20.664Z,114.70
2022-12-23T02:11:53.573Z,107.50
2022-12-23T02:15:11.687Z,107.10
2022-12-23T02:17:41.187Z,116.32
2022-12-23T02:20:34.213Z,103.57
2022-12-23T02:23:06.501Z,121.75
2022-12-23T02:25:48.340Z,112.97
2022-12-23T02:28:48.901Z,109.63
2022-12-23T02:31:29.858Z,113.68
2022-12-23T02:34:42.894Z,114.68
2022-12-23T02:37:18.711Z,112.00
2022-12-23T02:40:07.231Z,106.65
2022-12-23T02:42:59.972Z,102.43
2022-12-23T02:45:50.294Z,106.47
2022-12-23T02:48:32.079Z,96.57
2022-12-23T02:51:00.880Z,118.95
2022-12-23T02:53:39.781Z,114.80
2022-12-23T02:56:09.558Z,114.10
2022-12-23T02:58:42.922Z,111.35
2022-12-23T03:01:13.305Z,111.63
2022-12-23T03:03:41.806Z,110.93
2022-12-23T03:06:17.876Z,111.63
2022-12-23T03:08:45.722Z,105.40
2022-12-23T03:11:15.343Z,112.45
2022-12-23T03:13:41.937Z,158.10
2022-12-23T03:16:17.382Z,125.72
2022-12-23T03:19:08.084Z,111.25
2022-12-23T03:21:57.205Z,104.88
2022-12-23T03:24:37.730Z,119.25
2022-12-23T03:27:08.646Z,125.13
2022-12-23T03:29:35.200Z,117.15
2022-12-23T03:32:05.108Z,111.20
2022-12-23T03:34:37.799Z,120.55
2022-12-23T03:37:08.533Z,120.82
2022-12-23T03:39:45.656Z,111.75
2022-12-23T03:42:19.268Z,121.70
2022-12-23T03:45:19.315Z,105.93
2022-12-23T03:47:47.009Z,112.97
2022-12-23T03:50:17.487Z,109.43
2022-12-23T03:52:45.639Z,120.75
2022-12-23T03:55:20.461Z,111.13
2022-12-23T03:58:09.263Z,112.63
2022-12-23T04:00:42.565Z,101.72
2022-12-23T04:03:16.160Z,107.90
2022-12-23T04:05:50.117Z,116.13
2022-12-23T04:08:24.205Z,96.07
2022-12-23T04:10:51.364Z,117.93
2022-12-23T04:13:18.067Z,116.38
2022-12-23T04:15:45.076Z,104.35
2022-12-23T04:18:12.381Z,121.40
2022-12-23T04:20:39.117Z,123.53
2022-12-23T04:23:05.840Z,112.38
2022-12-23T04:25:32.536Z,104.43
2022-12-23T04:27:59.224Z,108.25
2022-12-23T04:30:31.517Z,102.22
2022-12-23T04:33:00.851Z,120.50
2022-12-23T04:35:27.438Z,121.82
2022-12-23T04:37:54.106Z,118.93
2022-12-23T04:40:20.699Z,123.68
2022-12-23T04:42:47.336Z,118.72
2022-12-23T04:45:14.095Z,123.40
2022-12-23T04:47:40.856Z,136.85
2022-12-23T04:50:08.503Z,99.30
2022-12-23T04:52:35.103Z,112.15
2022-12-23T04:55:01.736Z,108.65
2022-12-23T04:57:28.408Z,110.13
2022-12-23T04:59:55.076Z,119.78
2022-12-23T05:02:21.878Z,115.65
2022-12-23T05:04:48.596Z,116.30
2022-12-23T05:07:15.339Z,107.88
2022-12-23T05:09:41.987Z,115.32
2022-12-23T05:12:08.593Z,103.15
2022-12-23T05:14:35.217Z,107.28
2022-12-23T05:17:07.147Z,109.97
2022-12-23T05:19:34.241Z,107.68
2022-12-23T05:22:00.801Z,102.97
2022-12-23T05:24:27.383Z,111.43
2022-12-23T05:26:59.672Z,113.95
2022-12-23T05:29:27.304Z,106.03
2022-12-23T05:31:54.242Z,109.88
2022-12-23T05:34:21.120Z,103.80
2022-12-23T05:36:47.887Z,101.35
2022-12-23T05:39:14.728Z,102.68
2022-12-23T05:41:41.382Z,115.93
2022-12-23T05:44:10.752Z,102.15
2022-12-23T05:46:37.712Z,99.85
2022-12-23T05:49:04.475Z,79.20
2022-12-23T05:51:31.135Z,119.18
2022-12-23T05:53:58.087Z,111.60
2022-12-23T05:56:24.725Z,100.30
2022-12-23T05:58:51.372Z,112.80
2022-12-23T06:01:18.506Z,119.15
2022-12-23T06:03:45.264Z,103.20
2022-12-23T06:06:12.104Z,99.78
2022-12-23T06:08:38.907Z,79.90
2022-12-23T06:11:05.902Z,99.80
2022-12-23T06:13:32.580Z,85.13
2022-12-23T06:15:59.313Z,102.47
2022-12-23T06:18:26.005Z,102.50
2022-12-23T06:20:52.714Z,100.30
2022-12-23T06:23:19.314Z,90.60
2022-12-23T06:25:47.185Z,94.90
2022-12-23T06:28:13.841Z,85.00
2022-12-23T06:30:40.531Z,86.07
2022-12-23T06:33:07.152Z,87.68
2022-12-23T06:35:33.906Z,92.88
2022-12-23T06:38:01.087Z,97.43
2022-12-23T06:40:29.244Z,81.20
2022-12-23T06:42:56.112Z,79.13
2022-12-23T06:45:22.703Z,76.18
2022-12-23T06:47:49.406Z,71.60
2022-12-23T06:50:16.127Z,69.80
2022-12-23T06:52:42.818Z,101.43
2022-12-23T06:55:09.690Z,102.32
2022-12-23T06:57:36.741Z,107.55
2022-12-23T07:00:07.319Z,108.03
2022-12-23T07:02:34.201Z,111.28
2022-12-23T07:05:00.943Z,109.82
2022-12-23T07:07:27.628Z,103.30
2022-12-23T07:09:54.190Z,141.75
2022-12-23T07:12:20.889Z,132.85
2022-12-23T07:14:47.502Z,148.63
2022-12-23T07:17:14.280Z,143.80
2022-12-23T07:19:41.808Z,126.65
2022-12-23T07:22:10.191Z,108.70
2022-12-23T07:24:37.809Z,101.35
2022-12-23T07:27:04.831Z,112.07
2022-12-23T07:29:31.540Z,150.80
2022-12-23T07:31:59.066Z,102.28
2022-12-23T07:34:25.875Z,111.65
2022-12-23T07:36:52.763Z,93.90
2022-12-23T07:39:19.928Z,99.70
2022-12-23T07:41:46.653Z,94.82
2022-12-23T07:44:13.701Z,96.32
2022-12-23T07:46:41.583Z,104.07
2022-12-23T07:49:08.260Z,98.13
2022-12-23T07:51:34.857Z,86.07
2022-12-23T07:54:01.669Z,94.68
2022-12-23T07:56:28.320Z,98.38
2022-12-23T07:58:55.281Z,96.43
2022-12-23T08:01:22.668Z,97.78
2022-12-23T08:03:49.517Z,97.90
2022-12-23T08:06:18.448Z,101.90
2022-12-23T08:08:46.805Z,94.53
2022-12-23T08:11:15.194Z,95.05
2022-12-23T08:13:44.042Z,98.72
2022-12-23T08:16:11.510Z,93.32
2022-12-23T08:18:40.122Z,80.72
2022-12-23T08:21:14.967Z,98.53
2022-12-23T08:23:43.593Z,91.20
2022-12-23T08:26:13.021Z,96.95
2022-12-23T08:28:41.247Z,94.78
2022-12-23T08:31:10.444Z,114.22
2022-12-23T08:33:38.804Z,91.53
2022-12-23T08:36:07.717Z,80.00
2022-12-23T08:38:35.673Z,97.85
2022-12-23T08:41:02.556Z,97.20
2022-12-23T08:43:35.619Z,91.53
2022-12-23T08:46:03.440Z,96.83
2022-12-23T08:48:30.340Z,84.22
2022-12-23T08:50:57.049Z,100.30
2022-12-23T08:53:23.709Z,104.75
2022-12-23T08:55:50.303Z,102.22
2022-12-23T08:58:16.940Z,104.70
2022-12-23T09:00:43.578Z,101.78
2022-12-23T09:03:10.677Z,105.15
2022-12-23T09:05:41.560Z,110.32
2022-12-23T09:08:09.238Z,104.60
2022-12-23T09:10:47.335Z,104.10
2022-12-23T09:13:22.327Z,103.43
2022-12-23T09:15:53.721Z,103.60
2022-12-23T09:18:20.845Z,107.55
2022-12-23T09:20:48.672Z,115.03
2022-12-23T09:23:16.519Z,116.22
2022-12-23T09:25:43.150Z,111.13
2022-12-23T09:28:09.833Z,106.38
2022-12-23T09:30:39.467Z,113.45
2022-12-23T09:33:06.494Z,117.43
2022-12-23T09:35:36.466Z,123.40
2022-12-23T09:38:03.897Z,129.25
2022-12-23T09:40:33.541Z,122.88
2022-12-23T09:43:18.012Z,120.40
2022-12-23T09:46:04.775Z,123.72
2022-12-23T09:48:59.599Z,115.45
2022-12-23T09:51:28.160Z,117.78
2022-12-23T09:54:22.467Z,132.80
2022-12-23T09:57:23.739Z,112.27
2022-12-23T10:00:17.004Z,115.82
2022-12-23T10:03:14.401Z,128.65
2022-12-23T10:05:58.530Z,110.55
2022-12-23T10:08:33.655Z,111.13
2022-12-23T10:11:12.306Z,107.28
2022-12-23T10:13:44.290Z,101.80
2022-12-23T10:16:19.655Z,105.10
2022-12-23T10:18:48.427Z,113.95
2022-12-23T10:21:30.340Z,100.63
2022-12-23T10:23:56.945Z,103.00
2022-12-23T10:26:35.029Z,106.68
2022-12-23T10:29:34.486Z,111.53
2022-12-23T10:32:22.147Z,106.22
2022-12-23T10:34:51.768Z,97.90
2022-12-23T10:37:31.318Z,100.18
2022-12-23T10:40:11.883Z,109.85
2022-12-23T10:43:17.907Z,111.13
2022-12-23T10:46:07.871Z,108.93
2022-12-23T10:48:53.054Z,106.18
2022-12-23T10:51:43.901Z,112.68
2022-12-23T10:54:16.951Z,106.10
2022-12-23T10:56:46.334Z,114.55
2022-12-23T10:59:16.026Z,119.38
2022-12-23T11:01:47.756Z,109.55
2022-12-23T11:04:18.034Z,103.90
2022-12-23T11:07:10.572Z,100.28
2022-12-23T11:09:59.352Z,106.18
2022-12-23T11:12:42.227Z,106.57
2022-12-23T11:15:25.223Z,106.80
2022-12-23T11:18:19.099Z,105.50
2022-12-23T11:21:01.776Z,105.80
2022-12-23T11:23:32.308Z,117.43
2022-12-23T11:26:11.732Z,103.05
2022-12-23T11:28:40.955Z,106.80
2022-12-23T11:31:14.535Z,129.88
2022-12-23T11:33:49.288Z,111.57
2022-12-23T11:36:24.218Z,98.82
2022-12-23T11:39:02.409Z,128.73
2022-12-23T11:41:35.088Z,106.18
2022-12-23T11:44:04.518Z,106.32
2022-12-23T11:46:34.008Z,101.95
2022-12-23T11:49:05.673Z,116.90
2022-12-23T11:51:32.592Z,104.53
2022-12-23T11:54:01.648Z,98.75
2022-12-23T11:56:35.527Z,108.55
2022-12-23T11:59:29.208Z,105.13
2022-12-23T12:02:01.565Z,110.38
2022-12-23T12:04:33.007Z,100.53
2022-12-23T12:07:00.814Z,98.63
2022-12-23T12:09:30.885Z,117.53
2022-12-23T12:12:04.890Z,112.88
2022-12-23T12:14:43.437Z,106.05
2022-12-23T12:17:44.288Z,105.40
2022-12-23T12:20:24.736Z,103.18
2022-12-23T12:22:59.583Z,102.22
2022-12-23T12:25:39.550Z,114.80
2022-12-23T12:28:13.827Z,124.00
2022-12-23T12:31:12.916Z,131.57
2022-12-23T12:34:11.849Z,113.95
2022-12-23T12:36:52.835Z,138.70
2022-12-23T12:39:36.350Z,108.20
2022-12-23T12:42:31.565Z,105.60
2022-12-23T12:48:18.249Z,110.97
2022-12-23T12:50:59.791Z,123.32
2022-12-23T12:53:28.343Z,116.88
2022-12-23T12:56:15.817Z,113.93
2022-12-23T12:58:44.698Z,113.68
2022-12-23T13:01:17.287Z,116.60
2022-12-23T13:03:47.060Z,119.82
2022-12-23T13:06:28.820Z,108.43
2022-12-23T13:09:13.908Z,105.65
2022-12-23T13:11:55.157Z,112.75
2022-12-23T13:14:21.734Z,124.15
2022-12-23T13:17:03.764Z,123.78
2022-12-23T13:19:51.450Z,129.93
2022-12-23T13:22:28.071Z,123.50
2022-12-23T13:25:12.900Z,107.93
2022-12-23T13:31:05.019Z,120.20
2022-12-23T13:33:48.679Z,114.18
2022-12-23T13:36:45.555Z,118.97
2022-12-23T13:39:56.123Z,111.85
2022-12-23T13:42:52.790Z,123.95
2022-12-23T13:45:42.835Z,115.38
2022-12-23T13:48:18.044Z,111.68
2022-12-23T13:50:55.405Z,113.97
2022-12-23T13:54:05.095Z,102.78
2022-12-23T13:57:08.960Z,110.75
2022-12-23T13:59:58.416Z,101.72
2022-12-23T14:03:02.701Z,114.80
2022-12-23T14:05:41.103Z,106.90
2022-12-23T14:08:19.805Z,107.28
2022-12-23T14:11:00.870Z,123.53
2022-12-23T14:13:41.654Z,113.57
2022-12-23T14:16:39.854Z,110.38
2022-12-23T14:19:46.303Z,137.32
2022-12-23T14:22:41.579Z,124.70
2022-12-23T14:25:30.021Z,133.70
2022-12-23T14:28:31.724Z,145.45
2022-12-23T14:30:58.646Z,152.65
2022-12-23T14:33:31.394Z,163.30
2022-12-23T14:36:26.911Z,158.10
2022-12-23T14:39:12.050Z,151.73
2022-12-23T14:42:08.373Z,150.65
2022-12-23T14:44:37.742Z,157.50
2022-12-23T14:47:40.564Z,164.00
2022-12-23T14:50:44.806Z,156.27
2022-12-23T14:53:25.311Z,154.13
2022-12-23T14:56:10.466Z,148.70
2022-12-23T14:58:46.202Z,143.82
2022-12-23T15:01:25.513Z,149.57
2022-12-23T15:04:47.595Z,146.10
2022-12-23T15:08:14.543Z,151.82
2022-12-23T15:10:51.578Z,134.40
2022-12-23T15:13:19.735Z,131.18
2022-12-23T15:15:59.162Z,138.43
2022-12-23T15:18:28.604Z,128.73
2022-12-23T15:21:04.954Z,135.05
2022-12-23T15:23:34.043Z,128.85
2022-12-23T15:26:02.352Z,141.23
2022-12-23T15:28:41.002Z,133.63
2022-12-23T15:31:35.154Z,151.05
2022-12-23T15:34:14.857Z,140.88
2022-12-23T15:36:44.828Z,130.48
2022-12-23T15:39:20.374Z,126.13
2022-12-23T15:41:48.408Z,159.52
2022-12-23T15:44:23.042Z,136.20
2022-12-23T15:46:51.329Z,143.63
2022-12-23T15:49:20.433Z,142.82
2022-12-23T15:52:12.532Z,147.15
2022-12-23T15:54:53.201Z,217.07
2022-12-23T15:57:24.320Z,208.40
2022-12-23T15:59:51.310Z,186.98
2022-12-23T16:05:34.491Z,168.43
2022-12-23T16:08:23.191Z,159.88
2022-12-23T16:11:17.896Z,165.35
2022-12-23T16:13:59.457Z,151.15
2022-12-23T16:16:33.822Z,156.10
2022-12-23T16:19:00.570Z,158.77
2022-12-23T16:21:34.749Z,145.48
2022-12-23T16:24:06.493Z,164.15
2022-12-23T16:26:40.516Z,158.95
2022-12-23T16:29:10.271Z,146.50
2022-12-23T16:31:37.702Z,145.30
2022-12-23T16:34:07.995Z,139.20
2022-12-23T16:36:36.657Z,149.73
2022-12-23T16:39:06.996Z,144.65
2022-12-23T16:41:34.600Z,143.60
2022-12-23T16:44:01.342Z,170.95
2022-12-23T16:46:31.680Z,173.10
2022-12-23T16:49:00.952Z,157.38
2022-12-23T16:51:30.589Z,188.25
2022-12-23T16:54:00.499Z,155.45
2022-12-23T16:56:30.461Z,170.32
2022-12-23T16:58:57.131Z,170.52
2022-12-23T17:01:27.736Z,172.88
2022-12-23T17:03:55.993Z,148.73
2022-12-23T17:06:23.363Z,154.18
2022-12-23T17:09:11.999Z,141.05
2022-12-23T17:11:47.738Z,160.18
2022-12-23T17:14:30.207Z,152.27
2022-12-23T17:16:57.651Z,151.82
2022-12-23T17:19:28.972Z,168.02
2022-12-23T17:22:01.618Z,167.60
2022-12-23T17:24:44.565Z,182.10
2022-12-23T17:27:14.121Z,164.15
2022-12-23T17:29:44.844Z,162.18
2022-12-23T17:32:13.998Z,154.85
2022-12-23T17:35:01.459Z,163.48
2022-12-23T17:37:31.792Z,290.65
2022-12-23T17:40:07.316Z,214.40
2022-12-23T17:42:51.911Z,160.73
2022-12-23T17:45:43.393Z,153.75
2022-12-23T17:48:17.996Z,146.65
2022-12-23T17:50:47.863Z,150.13
2022-12-23T17:53:26.314Z,166.60
2022-12-23T17:55:52.955Z,167.70
2022-12-23T17:58:19.777Z,170.98
2022-12-23T18:00:47.078Z,163.60
2022-12-23T18:03:23.911Z,163.82
2022-12-23T18:06:01.749Z,176.75
2022-12-23T18:08:29.033Z,170.57
2022-12-23T18:11:03.082Z,159.40
2022-12-23T18:16:21.577Z,179.85
2022-12-23T18:18:48.361Z,158.52
2022-12-23T18:21:24.696Z,173.30
2022-12-23T18:23:53.417Z,180.93
2022-12-23T18:26:22.757Z,175.23
2022-12-23T18:28:51.381Z,157.25
2022-12-23T18:31:23.969Z,146.75
2022-12-23T18:33:51.798Z,148.90
2022-12-23T18:36:25.969Z,156.45
2022-12-23T18:38:57.358Z,157.13
2022-12-23T18:41:27.339Z,165.70
2022-12-23T18:43:54.458Z,164.50
2022-12-23T18:46:21.671Z,162.88
2022-12-23T18:48:48.673Z,169.70
2022-12-23T18:51:17.460Z,156.05
2022-12-23T18:53:45.773Z,163.68
2022-12-23T18:56:14.314Z,190.70
2022-12-23T18:58:41.101Z,197.20
2022-12-23T19:01:12.957Z,183.15
2022-12-23T19:03:40.289Z,190.55
2022-12-23T19:06:08.833Z,200.93
2022-12-23T19:08:37.304Z,200.57
2022-12-23T19:11:15.574Z,201.80
2022-12-23T19:13:42.290Z,202.63
2022-12-23T19:16:14.115Z,201.80
2022-12-23T19:18:41.055Z,163.30
2022-12-23T19:21:09.336Z,185.10
2022-12-23T19:23:36.275Z,182.05
2022-12-23T19:26:05.904Z,177.80
2022-12-23T19:28:33.692Z,170.57
2022-12-23T19:31:00.575Z,178.23
2022-12-23T19:33:27.304Z,166.50
2022-12-23T19:35:54.960Z,176.80
2022-12-23T19:38:21.683Z,160.70
2022-12-23T19:40:57.464Z,147.68
2022-12-23T19:43:24.128Z,160.85
2022-12-23T19:45:58.939Z,180.00
2022-12-23T19:48:26.267Z,183.05
2022-12-23T19:51:00.916Z,171.68
2022-12-23T19:53:28.539Z,171.70
2022-12-23T19:56:10.980Z,175.63
2022-12-23T19:58:40.154Z,161.40
2022-12-23T20:01:11.498Z,169.25
2022-12-23T20:03:38.470Z,159.30
2022-12-23T20:06:06.976Z,174.45
2022-12-23T20:08:34.689Z,185.57
2022-12-23T20:11:09.690Z,179.95
2022-12-23T20:13:36.822Z,161.48
2022-12-23T20:16:06.116Z,168.30
2022-12-23T20:18:33.123Z,163.95
2022-12-23T20:21:01.246Z,136.45
2022-12-23T20:23:28.734Z,136.15
2022-12-23T20:25:59.099Z,161.73
2022-12-23T20:28:26.235Z,169.88
2022-12-23T20:31:11.949Z,152.38
2022-12-23T20:33:40.196Z,134.77
2022-12-23T20:36:11.365Z,156.27
2022-12-23T20:38:39.252Z,136.82
2022-12-23T20:41:07.797Z,164.98
2022-12-23T20:43:34.850Z,197.60
2022-12-23T20:46:06.039Z,150.48
2022-12-23T20:48:34.544Z,126.03
2022-12-23T20:51:24.839Z,135.00
2022-12-23T20:53:54.005Z,129.80
2022-12-23T20:56:21.942Z,155.85
2022-12-23T20:58:54.904Z,184.23
2022-12-23T21:01:24.714Z,169.73
2022-12-23T21:03:52.069Z,148.55
2022-12-23T21:06:19.645Z,158.38
2022-12-23T21:08:46.740Z,154.38
2022-12-23T21:11:16.428Z,176.77
2022-12-23T21:13:46.195Z,211.77
2022-12-23T21:16:18.157Z,265.60
2022-12-23T21:18:50.885Z,206.65
2022-12-23T21:21:17.867Z,198.35
2022-12-23T21:23:44.989Z,187.65
2022-12-23T21:26:15.141Z,199.05
2022-12-23T21:28:43.627Z,207.52
2022-12-23T21:31:10.567Z,163.75
2022-12-23T21:33:39.814Z,186.68
2022-12-23T21:36:07.833Z,140.77
2022-12-23T21:38:37.548Z,149.60
2022-12-23T21:41:07.601Z,172.82
2022-12-23T21:43:34.488Z,154.52
2022-12-23T21:46:04.265Z,158.52
2022-12-23T21:48:32.959Z,138.63
2022-12-23T21:51:20.260Z,145.80
2022-12-23T21:53:49.448Z,136.98
2022-12-23T21:56:19.148Z,141.90
2022-12-23T21:58:46.385Z,146.43
2022-12-23T22:01:16.568Z,142.32
2022-12-23T22:03:44.685Z,165.95
2022-12-23T22:06:14.962Z,170.77
2022-12-23T22:08:42.495Z,131.45
2022-12-23T22:11:12.071Z,123.60
2022-12-23T22:13:39.700Z,126.32
2022-12-23T22:16:10.881Z,145.45
2022-12-23T22:18:38.750Z,126.03
2022-12-23T22:21:11.845Z,116.38
2022-12-23T22:23:39.063Z,126.55
2022-12-23T22:26:07.210Z,111.10
2022-12-23T22:28:35.859Z,112.50
2022-12-23T22:31:21.147Z,105.20
2022-12-23T22:33:47.987Z,123.05
2022-12-23T22:36:18.059Z,126.13
2022-12-23T22:38:44.751Z,118.75
2022-12-23T22:41:11.627Z,115.93
2022-12-23T22:43:38.431Z,109.28
2022-12-23T22:46:05.621Z,117.35
2022-12-23T22:48:32.519Z,127.97
2022-12-23T22:51:03.211Z,122.15
2022-12-23T22:53:30.193Z,127.85
2022-12-23T22:55:59.080Z,128.00
2022-12-23T22:58:27.705Z,114.57
2022-12-23T23:00:54.546Z,123.00
2022-12-23T23:03:21.331Z,111.18
2022-12-23T23:06:07.039Z,98.15
2022-12-23T23:08:34.711Z,94.13
2022-12-23T23:11:03.369Z,112.15
2022-12-23T23:13:33.104Z,99.57
2022-12-23T23:15:59.989Z,82.10
2022-12-23T23:18:27.301Z,98.93
2022-12-23T23:20:59.922Z,93.80
2022-12-23T23:23:26.638Z,98.45
2022-12-23T23:25:53.344Z,90.20
2022-12-23T23:28:20.006Z,95.05
2022-12-23T23:30:47.112Z,92.78
2022-12-23T23:33:14.006Z,89.75
2022-12-23T23:35:40.729Z,108.03
2022-12-23T23:38:07.940Z,105.63
2022-12-23T23:40:34.603Z,102.97
2022-12-23T23:43:01.400Z,93.13
2022-12-23T23:45:28.067Z,97.10
2022-12-23T23:47:55.407Z,117.35
2022-12-23T23:50:22.023Z,108.70
2022-12-23T23:52:48.647Z,110.15
2022-12-23T23:55:15.304Z,101.38
2022-12-23T23:57:41.931Z,97.72
